Time;durP1;ratioP1;P1;durP2;ratioP2;P2;SDS_P1;SDS_P2;PMS_P1;PMS_P2;Temp;Humidity;BMP_temperature;BMP_pressure;BME280_temperature;BME280_humidity;BME280_pressure;Samples;Min_cycle;Max_cycle;Signal;HPM_P1;HPM_P2
2022/02/14 00:01:21;;;;;;;11.83;5.87;;;4.10;99.70;;;;;;5070943;28;20438;-66
2022/02/14 00:03:48;;;;;;;14.23;5.87;;;4.10;99.70;;;;;;5070585;28;20442;-68
2022/02/14 00:06:16;;;;;;;17.23;6.43;;;4.10;99.70;;;;;;5070481;28;20443;-67
2022/02/14 00:08:44;;;;;;;15.10;6.00;;;4.10;99.70;;;;;;5069796;28;20446;-67
2022/02/14 00:11:11;;;;;;;13.40;5.63;;;4.10;99.70;;;;;;5071042;28;20763;-66
2022/02/14 00:13:38;;;;;;;9.40;5.43;;;4.20;99.70;;;;;;5071012;28;20443;-67
2022/02/14 00:16:05;;;;;;;9.30;5.10;;;4.30;99.70;;;;;;5070274;28;21001;-67
2022/02/14 00:18:32;;;;;;;10.70;5.83;;;4.40;99.70;;;;;;5070840;28;20569;-68
2022/02/14 00:20:58;;;;;;;21.10;6.40;;;4.30;99.70;;;;;;5070936;28;20442;-67
2022/02/14 00:23:27;;;;;;;12.60;5.77;;;4.30;99.70;;;;;;5070572;28;20447;-67
2022/02/14 00:25:53;;;;;;;11.50;5.30;;;4.30;99.70;;;;;;5070547;28;20434;-67
2022/02/14 00:28:20;;;;;;;11.03;5.23;;;4.40;99.70;;;;;;5070683;28;20462;-67
2022/02/14 00:30:47;;;;;;;12.23;5.90;;;4.40;99.70;;;;;;5070690;28;20451;-68
2022/02/14 00:33:13;;;;;;;11.77;5.60;;;4.30;99.70;;;;;;5070827;28;20808;-67
2022/02/14 00:35:40;;;;;;;15.87;6.37;;;4.40;99.70;;;;;;5070199;28;20482;-67
2022/02/14 00:38:07;;;;;;;12.20;5.93;;;4.50;99.70;;;;;;5070044;28;20471;-67
2022/02/14 00:40:35;;;;;;;9.77;5.20;;;4.40;99.70;;;;;;5070081;28;20821;-67
2022/02/14 00:43:02;;;;;;;8.83;5.07;;;4.50;99.70;;;;;;5070674;28;20451;-67
2022/02/14 00:45:29;;;;;;;13.40;5.80;;;4.60;99.70;;;;;;5070334;28;20479;-67
2022/02/14 00:47:56;;;;;;;11.93;5.40;;;4.50;99.70;;;;;;5070244;28;20459;-68
2022/02/14 00:50:23;;;;;;;9.43;5.30;;;4.60;99.70;;;;;;5070597;28;20446;-67
2022/02/14 00:52:49;;;;;;;10.10;5.60;;;4.60;99.70;;;;;;5070525;28;20453;-68
2022/02/14 00:55:18;;;;;;;10.90;5.07;;;4.70;99.70;;;;;;5069438;28;20483;-67
2022/02/14 00:57:47;;;;;;;8.30;5.20;;;4.60;99.70;;;;;;5070376;28;20965;-68
2022/02/14 01:00:15;;;;;;;13.37;5.90;;;4.70;99.70;;;;;;5070099;28;20478;-67
2022/02/14 01:02:42;;;;;;;11.00;5.50;;;4.70;99.70;;;;;;5070530;28;20439;-67
2022/02/14 01:05:09;;;;;;;10.23;5.50;;;4.80;99.70;;;;;;5070140;28;20663;-67
2022/02/14 01:07:36;;;;;;;11.37;5.47;;;4.80;99.70;;;;;;5069797;28;20458;-67
2022/02/14 01:10:04;;;;;;;12.50;5.60;;;4.80;99.70;;;;;;5070163;28;20461;-68
2022/02/14 01:12:32;;;;;;;10.30;5.10;;;4.70;99.70;;;;;;5070481;28;20813;-68
2022/02/14 01:15:04;;;;;;;12.07;5.13;;;4.70;99.70;;;;;;5063894;28;20448;-68
2022/02/14 01:17:30;;;;;;;10.40;5.40;;;4.80;99.70;;;;;;5049913;28;20510;-68
2022/02/14 01:19:57;;;;;;;10.93;5.30;;;4.80;99.70;;;;;;5053569;28;20860;-67
2022/02/14 01:22:24;;;;;;;11.27;5.10;;;4.90;99.70;;;;;;5053932;28;20780;-67
2022/02/14 01:24:50;;;;;;;10.83;5.20;;;4.80;99.70;;;;;;5053709;28;20443;-68
2022/02/14 01:27:17;;;;;;;13.30;5.43;;;4.80;99.70;;;;;;5053862;28;20827;-67
2022/02/14 01:29:44;;;;;;;9.70;5.17;;;4.90;99.70;;;;;;5053780;28;20447;-68
2022/02/14 01:32:12;;;;;;;13.23;5.30;;;4.90;99.70;;;;;;5053691;28;20450;-67
2022/02/14 01:34:39;;;;;;;10.50;5.00;;;4.80;99.70;;;;;;5053592;28;20448;-67
2022/02/14 01:37:06;;;;;;;13.10;5.10;;;4.80;99.70;;;;;;5055273;28;20494;-67
2022/02/14 01:39:33;;;;;;;10.03;5.33;;;4.80;99.70;;;;;;5056349;28;20516;-66
2022/02/14 01:42:00;;;;;;;8.90;4.43;;;4.90;99.70;;;;;;5055581;28;20455;-67
2022/02/14 01:44:35;;;;;;;9.00;4.87;;;4.90;99.70;;;;;;5055282;28;20444;-66
2022/02/14 01:47:02;;;;;;;10.30;5.00;;;4.90;99.70;;;;;;5069438;28;20490;-68
2022/02/14 01:49:30;;;;;;;10.03;4.30;;;4.90;99.70;;;;;;5069585;28;20447;-67
2022/02/14 01:51:57;;;;;;;8.93;4.20;;;5.00;99.70;;;;;;5067891;28;20902;-66
2022/02/14 01:54:24;;;;;;;10.07;4.53;;;5.00;99.70;;;;;;5069847;28;20443;-67
2022/02/14 01:56:50;;;;;;;9.70;4.77;;;5.10;99.70;;;;;;5069316;28;20478;-67
2022/02/14 01:59:17;;;;;;;8.30;4.30;;;5.10;99.70;;;;;;5069678;28;20482;-67
2022/02/14 02:01:44;;;;;;;8.33;4.50;;;5.10;99.70;;;;;;5071399;28;20446;-67
2022/02/14 02:04:13;;;;;;;11.13;4.70;;;5.10;99.70;;;;;;5069593;28;20450;-67
2022/02/14 02:06:42;;;;;;;10.77;4.60;;;5.10;99.70;;;;;;5069401;28;20469;-66
2022/02/14 02:09:09;;;;;;;8.23;4.40;;;5.10;99.70;;;;;;5043223;28;20830;-67
2022/02/14 02:14:22;;;;;;;9.30;4.73;;;5.10;99.70;;;;;;5055131;28;20829;-67
2022/02/14 02:16:49;;;;;;;8.73;5.03;;;5.10;99.70;;;;;;5052735;28;20974;-67
2022/02/14 02:19:16;;;;;;;7.00;4.00;;;5.10;99.70;;;;;;5054753;28;20454;-67
2022/02/14 02:21:46;;;;;;;6.83;4.10;;;5.20;99.70;;;;;;5054745;28;20451;-67
2022/02/14 02:24:17;;;;;;;8.87;4.17;;;5.20;99.70;;;;;;5043663;28;20494;-67
2022/02/14 02:26:45;;;;;;;8.10;4.20;;;5.20;99.70;;;;;;5054396;28;20460;-68
2022/02/14 02:29:14;;;;;;;8.07;4.13;;;5.20;99.70;;;;;;5054023;28;20467;-67
2022/02/14 02:31:41;;;;;;;6.93;4.13;;;5.20;99.70;;;;;;5042556;28;20451;-68
2022/02/14 02:34:07;;;;;;;8.47;4.30;;;5.20;99.70;;;;;;5054711;28;20443;-67
2022/02/14 02:36:45;;;;;;;7.90;3.90;;;5.10;99.70;;;;;;5052592;28;20483;-69
2022/02/14 02:39:12;;;;;;;8.43;4.00;;;5.10;99.70;;;;;;5042974;28;20448;-67
2022/02/14 02:41:39;;;;;;;7.63;4.07;;;5.00;99.70;;;;;;5054296;28;20451;-67
2022/02/14 02:44:07;;;;;;;9.17;3.87;;;5.00;99.70;;;;;;5053342;28;20831;-68
2022/02/14 02:46:34;;;;;;;9.43;4.10;;;5.10;99.70;;;;;;5066149;28;20434;-68
2022/02/14 02:49:10;;;;;;;7.10;3.93;;;5.10;99.70;;;;;;5068658;28;20448;-68
2022/02/14 02:51:38;;;;;;;10.23;3.80;;;5.20;99.70;;;;;;5070190;28;20450;-67
2022/02/14 02:54:05;;;;;;;6.80;4.00;;;5.20;99.70;;;;;;5054219;28;20444;-67
2022/02/14 02:56:31;;;;;;;9.27;4.00;;;5.20;99.70;;;;;;5053790;28;20478;-66
2022/02/14 02:58:58;;;;;;;7.33;4.13;;;5.20;99.70;;;;;;5053000;28;20947;-67
2022/02/14 03:01:27;;;;;;;6.87;3.80;;;5.20;99.70;;;;;;5053993;28;20440;-66
2022/02/14 03:03:53;;;;;;;6.40;3.73;;;5.30;99.70;;;;;;5054089;28;20856;-67
2022/02/14 03:06:20;;;;;;;5.97;3.30;;;5.30;99.70;;;;;;5052580;28;20955;-68
2022/02/14 03:08:49;;;;;;;7.73;4.10;;;5.30;99.70;;;;;;5053269;28;20447;-67
2022/02/14 03:11:16;;;;;;;7.33;4.03;;;5.20;99.70;;;;;;5053133;28;20488;-67
2022/02/14 03:13:43;;;;;;;7.87;3.70;;;5.30;99.70;;;;;;5053393;28;20466;-66
2022/02/14 03:16:10;;;;;;;6.87;4.10;;;5.20;99.70;;;;;;5052723;28;20478;-67
2022/02/14 03:18:38;;;;;;;7.80;3.77;;;5.30;99.70;;;;;;5052654;28;20474;-67
2022/02/14 03:21:05;;;;;;;9.90;4.00;;;5.20;99.70;;;;;;5053789;28;20448;-67
2022/02/14 03:23:32;;;;;;;8.50;3.77;;;5.20;99.70;;;;;;5053664;28;20553;-67
2022/02/14 03:25:59;;;;;;;6.13;3.70;;;5.20;99.70;;;;;;5052301;28;20448;-66
2022/02/14 03:28:26;;;;;;;6.80;3.80;;;5.20;99.70;;;;;;5053398;28;20463;-67
2022/02/14 03:30:53;;;;;;;6.40;3.77;;;5.20;99.70;;;;;;5053281;28;20440;-67
2022/02/14 03:33:20;;;;;;;7.13;3.97;;;5.20;99.70;;;;;;5053167;28;20454;-67
2022/02/14 03:35:48;;;;;;;9.80;3.90;;;5.10;99.70;;;;;;5052876;28;20521;-68
2022/02/14 03:38:15;;;;;;;7.57;3.50;;;5.10;99.70;;;;;;5052104;28;20490;-67
2022/02/14 03:40:42;;;;;;;6.80;3.87;;;5.00;99.70;;;;;;5067186;28;20824;-67
2022/02/14 03:43:10;;;;;;;5.97;3.57;;;5.00;99.50;;;;;;5067898;28;20443;-68
2022/02/14 03:45:38;;;;;;;9.87;3.90;;;5.00;99.70;;;;;;5069456;28;20619;-67
2022/02/14 03:48:06;;;;;;;8.43;4.10;;;5.10;99.70;;;;;;5067565;28;20474;-68
2022/02/14 03:50:33;;;;;;;8.73;3.87;;;5.00;99.70;;;;;;5067686;28;20442;-67
2022/02/14 03:53:01;;;;;;;6.80;3.87;;;4.90;99.70;;;;;;5069457;28;20482;-68
2022/02/14 03:55:28;;;;;;;7.27;3.97;;;4.80;99.70;;;;;;5067470;28;20449;-66
2022/02/14 03:57:55;;;;;;;10.80;4.17;;;4.80;99.70;;;;;;5067935;28;20485;-67
2022/02/14 04:00:24;;;;;;;8.77;4.20;;;4.60;99.70;;;;;;5068725;28;20462;-67
2022/02/14 04:02:51;;;;;;;9.90;4.67;;;4.60;99.70;;;;;;5067719;28;20447;-67
2022/02/14 04:05:20;;;;;;;8.50;4.10;;;4.40;99.70;;;;;;5068834;28;20454;-68
2022/02/14 04:07:47;;;;;;;9.40;4.03;;;4.30;99.70;;;;;;5066033;28;20477;-68
2022/02/14 04:10:16;;;;;;;12.67;4.57;;;4.20;99.70;;;;;;5067732;28;20814;-68
2022/02/14 04:12:43;;;;;;;7.87;4.10;;;4.20;99.70;;;;;;5069204;28;20447;-67
2022/02/14 04:15:11;;;;;;;7.33;4.10;;;4.20;99.70;;;;;;5067502;28;20942;-67
2022/02/14 04:17:38;;;;;;;8.70;4.10;;;4.20;99.70;;;;;;5066374;28;20510;-65
2022/02/14 04:20:06;;;;;;;9.40;4.70;;;4.10;99.70;;;;;;5068866;28;20450;-67
2022/02/14 04:22:33;;;;;;;7.40;3.90;;;4.10;99.70;;;;;;5067381;28;20451;-69
2022/02/14 04:25:00;;;;;;;7.83;4.57;;;4.00;99.70;;;;;;5067623;28;20458;-67
2022/02/14 04:27:28;;;;;;;8.77;4.83;;;3.80;99.70;;;;;;5068673;28;20458;-67
2022/02/14 04:29:54;;;;;;;11.80;4.83;;;3.70;99.70;;;;;;5067280;28;20805;-67
2022/02/14 04:32:21;;;;;;;6.90;4.07;;;3.50;99.70;;;;;;5069039;28;20442;-66
2022/02/14 04:34:48;;;;;;;9.90;4.57;;;3.50;99.70;;;;;;5052081;28;20444;-67
2022/02/14 04:37:15;;;;;;;10.10;4.30;;;3.50;99.70;;;;;;5052644;28;20487;-67
2022/02/14 04:39:42;;;;;;;7.80;4.27;;;3.30;99.70;;;;;;5078970;22;20494;-65
2022/02/14 04:42:10;;;;;;;8.10;4.73;;;3.20;99.70;;;;;;5069837;28;20450;-64
2022/02/14 04:44:38;;;;;;;11.43;4.70;;;3.20;99.70;;;;;;5070208;28;20479;-65
2022/02/14 04:47:04;;;;;;;9.67;4.40;;;3.20;99.70;;;;;;5059928;28;20443;-65
2022/02/14 04:49:31;;;;;;;9.13;4.27;;;3.10;99.70;;;;;;5069759;28;21004;-64
2022/02/14 04:51:58;;;;;;;9.97;4.40;;;3.30;99.70;;;;;;5070169;28;20442;-65
2022/02/14 04:54:25;;;;;;;9.70;4.20;;;3.40;99.70;;;;;;5071627;28;20446;-66
2022/02/14 04:56:52;;;;;;;8.53;4.50;;;3.40;99.70;;;;;;5073507;28;20860;-64
2022/02/14 04:59:19;;;;;;;7.40;3.77;;;3.50;99.70;;;;;;5074056;28;20480;-65
2022/02/14 05:01:47;;;;;;;6.47;3.73;;;3.50;99.70;;;;;;5073660;28;20454;-66
2022/02/14 05:04:14;;;;;;;8.20;3.90;;;3.50;99.70;;;;;;5074011;28;20493;-65
2022/02/14 05:06:41;;;;;;;8.90;4.00;;;3.70;99.70;;;;;;5074163;28;20918;-65
2022/02/14 05:09:08;;;;;;;11.10;4.30;;;3.50;99.70;;;;;;5074130;28;20442;-65
2022/02/14 05:11:34;;;;;;;7.20;4.30;;;3.30;99.70;;;;;;5073830;28;20438;-65
2022/02/14 05:14:01;;;;;;;8.03;4.60;;;3.20;99.70;;;;;;5074293;28;20447;-64
2022/02/14 05:16:28;;;;;;;7.90;4.03;;;3.20;99.70;;;;;;5073096;28;20438;-65
2022/02/14 05:18:56;;;;;;;11.10;4.30;;;3.20;99.70;;;;;;5074039;28;20451;-64
2022/02/14 05:21:23;;;;;;;12.50;4.50;;;3.40;99.70;;;;;;5073764;28;20853;-67
2022/02/14 05:23:51;;;;;;;10.10;4.10;;;3.40;99.70;;;;;;5074060;28;20786;-65
2022/02/14 05:26:18;;;;;;;9.40;4.30;;;3.30;99.70;;;;;;5073827;28;20446;-65
2022/02/14 05:28:45;;;;;;;7.47;4.30;;;3.10;99.70;;;;;;5073875;28;20442;-65
2022/02/14 05:31:11;;;;;;;10.83;4.17;;;3.00;99.70;;;;;;5073510;28;20893;-65
2022/02/14 05:33:38;;;;;;;15.47;5.70;;;3.10;99.70;;;;;;5073853;28;20942;-67
2022/02/14 05:36:06;;;;;;;9.63;5.20;;;3.00;99.70;;;;;;5073208;28;20449;-67
2022/02/14 05:38:33;;;;;;;11.17;4.63;;;3.00;99.70;;;;;;5073559;28;21001;-67
2022/02/14 05:41:00;;;;;;;9.77;4.40;;;3.00;99.70;;;;;;5065176;28;20471;-66
2022/02/14 05:43:26;;;;;;;12.50;4.60;;;3.00;99.70;;;;;;5069080;28;20450;-66
2022/02/14 05:45:53;;;;;;;11.23;4.20;;;3.00;99.70;;;;;;5068753;28;20443;-66
2022/02/14 05:48:26;;;;;;;9.80;4.10;;;3.00;99.70;;;;;;5069662;28;20976;-66
2022/02/14 05:50:53;;;;;;;9.47;4.60;;;3.00;99.70;;;;;;5064327;28;21215;-66
2022/02/14 05:53:22;;;;;;;9.37;4.50;;;3.00;99.70;;;;;;5067656;28;20450;-66
2022/02/14 05:55:49;;;;;;;10.63;4.20;;;2.90;99.70;;;;;;5067200;28;20508;-67
2022/02/14 05:58:15;;;;;;;9.77;4.53;;;2.80;99.70;;;;;;5072699;28;20577;-66
2022/02/14 06:00:42;;;;;;;13.70;6.90;;;2.80;99.70;;;;;;5072719;28;21005;-66
2022/02/14 06:03:09;;;;;;;11.07;5.13;;;2.60;99.70;;;;;;5069682;28;20546;-66
2022/02/14 06:05:36;;;;;;;11.60;4.70;;;2.60;99.70;;;;;;5065596;28;20439;-66
2022/02/14 06:08:03;;;;;;;11.80;5.10;;;2.60;99.70;;;;;;5067175;28;20471;-66
2022/02/14 06:10:31;;;;;;;11.57;4.37;;;2.60;99.70;;;;;;5061600;28;20467;-66
2022/02/14 06:12:58;;;;;;;14.03;4.60;;;2.60;99.70;;;;;;5065992;28;20458;-66
2022/02/14 06:15:24;;;;;;;9.20;4.67;;;2.60;99.70;;;;;;5060040;28;20444;-66
2022/02/14 06:17:52;;;;;;;8.60;4.07;;;2.50;99.70;;;;;;5062039;28;20849;-65
2022/02/14 06:20:19;;;;;;;10.00;4.23;;;2.60;99.70;;;;;;5061862;28;20463;-66
2022/02/14 06:22:46;;;;;;;8.60;4.20;;;2.60;99.70;;;;;;5062744;28;20915;-67
2022/02/14 06:25:13;;;;;;;10.63;4.30;;;2.70;99.70;;;;;;5054941;28;20452;-66
2022/02/14 06:27:41;;;;;;;9.27;4.57;;;2.70;99.70;;;;;;5049097;28;20435;-65
2022/02/14 06:30:08;;;;;;;15.53;5.23;;;3.00;99.70;;;;;;5047123;28;20483;-64
2022/02/14 06:32:35;;;;;;;12.67;5.30;;;3.30;99.70;;;;;;5048506;28;20439;-66
2022/02/14 06:35:02;;;;;;;12.47;4.83;;;3.40;99.70;;;;;;5051500;28;20443;-66
2022/02/14 06:37:29;;;;;;;11.50;4.60;;;3.50;99.70;;;;;;5050722;28;20476;-66
2022/02/14 06:39:57;;;;;;;12.73;4.90;;;3.40;99.70;;;;;;5052227;28;20475;-66
2022/02/14 06:42:23;;;;;;;11.30;5.53;;;3.60;99.70;;;;;;5052341;28;20443;-66
2022/02/14 06:44:52;;;;;;;13.13;5.60;;;3.60;99.70;;;;;;5052213;28;20439;-65
2022/02/14 06:47:18;;;;;;;17.33;7.30;;;3.50;99.70;;;;;;5049967;28;20450;-65
2022/02/14 06:49:45;;;;;;;15.63;7.03;;;3.60;99.70;;;;;;5049530;28;20840;-66
2022/02/14 06:52:12;;;;;;;16.67;7.17;;;3.70;99.70;;;;;;5049941;28;20447;-62
2022/02/14 06:54:38;;;;;;;11.10;5.93;;;3.80;99.70;;;;;;5049796;28;20951;-66
2022/02/14 06:57:05;;;;;;;15.10;7.23;;;3.90;99.70;;;;;;5051190;28;20471;-66
2022/02/14 06:59:32;;;;;;;20.30;6.90;;;3.90;99.70;;;;;;5052198;28;20517;-66
2022/02/14 07:02:00;;;;;;;15.90;6.10;;;4.00;99.70;;;;;;5052088;28;20981;-66
2022/02/14 07:04:27;;;;;;;13.17;5.60;;;4.00;99.70;;;;;;5052178;28;20821;-66
2022/02/14 07:06:54;;;;;;;11.27;5.30;;;4.10;99.70;;;;;;5051955;28;20454;-65
2022/02/14 07:09:20;;;;;;;11.40;5.30;;;4.30;99.70;;;;;;5051845;28;20937;-66
2022/02/14 07:11:47;;;;;;;9.87;4.97;;;4.30;99.70;;;;;;5051924;28;20447;-65
2022/02/14 07:14:16;;;;;;;9.77;4.63;;;4.30;99.70;;;;;;5052167;28;20444;-66
2022/02/14 07:16:43;;;;;;;9.10;4.20;;;4.30;99.70;;;;;;5050576;28;20961;-65
2022/02/14 07:19:11;;;;;;;14.10;4.90;;;4.30;99.70;;;;;;5052121;28;20490;-65
2022/02/14 07:21:38;;;;;;;12.90;4.60;;;4.30;99.70;;;;;;5051855;28;20436;-64
2022/02/14 07:24:05;;;;;;;8.20;4.07;;;4.30;99.70;;;;;;5051698;28;20466;-67
2022/02/14 07:26:32;;;;;;;10.50;4.20;;;4.30;99.70;;;;;;5051466;28;20447;-65
2022/02/14 07:28:58;;;;;;;10.13;4.70;;;4.10;99.70;;;;;;5051476;28;20447;-66
2022/02/14 07:31:25;;;;;;;9.80;5.00;;;4.20;99.70;;;;;;5050981;28;20505;-66
2022/02/14 07:33:52;;;;;;;9.00;5.00;;;4.30;99.70;;;;;;5051535;28;20451;-66
2022/02/14 07:36:21;;;;;;;12.00;4.27;;;4.40;99.70;;;;;;5051377;28;20822;-65
2022/02/14 07:38:47;;;;;;;11.17;4.60;;;4.30;99.70;;;;;;5051374;28;20525;-65
2022/02/14 07:41:14;;;;;;;8.73;4.33;;;4.30;99.70;;;;;;5051162;28;20479;-65
2022/02/14 07:43:41;;;;;;;11.50;4.50;;;4.30;99.70;;;;;;5051358;28;20474;-65
2022/02/14 07:46:08;;;;;;;20.50;5.03;;;4.30;99.70;;;;;;5050696;28;20455;-66
2022/02/14 07:48:34;;;;;;;13.40;4.50;;;4.40;99.70;;;;;;5051221;28;20439;-66
2022/02/14 07:51:01;;;;;;;12.50;4.63;;;4.40;99.70;;;;;;5051086;28;20468;-66
2022/02/14 07:53:29;;;;;;;8.00;4.33;;;4.40;99.70;;;;;;5051341;28;20923;-65
2022/02/14 07:55:56;;;;;;;9.40;4.40;;;4.50;99.70;;;;;;5050906;28;20447;-67
2022/02/14 07:58:23;;;;;;;7.60;4.30;;;4.60;99.70;;;;;;5050574;28;21016;-65
2022/02/14 08:00:50;;;;;;;8.63;4.50;;;4.50;99.70;;;;;;5051039;28;20456;-66
2022/02/14 08:03:18;;;;;;;11.70;4.07;;;4.70;99.70;;;;;;5051260;28;20443;-65
2022/02/14 08:05:44;;;;;;;14.23;4.47;;;4.70;99.70;;;;;;5050832;28;20974;-66
2022/02/14 08:08:11;;;;;;;10.67;4.70;;;4.80;99.70;;;;;;5051023;28;20443;-66
2022/02/14 08:10:39;;;;;;;6.70;4.00;;;4.90;99.70;;;;;;5050926;28;20471;-66
2022/02/14 08:13:06;;;;;;;10.27;3.90;;;5.00;99.70;;;;;;5051300;28;20447;-66
2022/02/14 08:15:32;;;;;;;8.00;4.13;;;5.20;99.70;;;;;;5050539;28;20451;-66
2022/02/14 08:18:04;;;;;;;9.10;4.37;;;6.10;99.70;;;;;;5050128;28;20899;-66
2022/02/14 08:20:31;;;;;;;9.33;4.20;;;6.80;99.70;;;;;;5050634;28;20472;-67
2022/02/14 08:22:58;;;;;;;7.50;3.80;;;7.70;97.60;;;;;;5050887;28;20454;-66
2022/02/14 08:25:25;;;;;;;12.20;4.27;;;8.50;95.40;;;;;;5050557;28;20460;-66
2022/02/14 08:27:53;;;;;;;11.67;4.87;;;8.90;95.40;;;;;;5051294;28;20868;-65
2022/02/14 08:30:20;;;;;;;9.90;4.37;;;8.50;93.70;;;;;;5054095;28;20537;-67
2022/02/14 08:32:47;;;;;;;16.43;4.80;;;8.40;92.40;;;;;;5055144;28;20455;-66
2022/02/14 08:35:16;;;;;;;9.97;4.20;;;8.20;93.10;;;;;;5054681;28;20965;-66
2022/02/14 08:37:43;;;;;;;7.67;4.20;;;8.00;93.30;;;;;;5054759;28;20525;-66
2022/02/14 08:40:11;;;;;;;11.23;4.50;;;7.70;95.90;;;;;;5054123;28;20474;-66
2022/02/14 08:42:38;;;;;;;10.33;4.60;;;7.40;96.10;;;;;;5054816;28;20443;-66
2022/02/14 08:45:07;;;;;;;12.30;4.67;;;7.40;95.40;;;;;;5054541;28;20451;-66
2022/02/14 08:47:33;;;;;;;9.40;4.30;;;7.20;97.00;;;;;;5054605;28;20445;-66
2022/02/14 08:50:02;;;;;;;9.67;4.97;;;7.30;94.70;;;;;;5054599;28;20471;-64
2022/02/14 08:52:29;;;;;;;12.17;4.80;;;7.30;94.10;;;;;;5054626;28;20447;-66
2022/02/14 08:54:56;;;;;;;12.50;4.83;;;7.30;94.50;;;;;;5054257;28;20989;-66
2022/02/14 08:57:23;;;;;;;12.00;4.77;;;7.20;95.10;;;;;;5054340;28;20440;-65
2022/02/14 08:59:50;;;;;;;9.60;4.60;;;7.20;97.20;;;;;;5054518;28;20530;-66
2022/02/14 09:02:18;;;;;;;15.53;4.50;;;7.30;95.10;;;;;;5054314;28;20879;-66
2022/02/14 09:04:45;;;;;;;9.33;4.53;;;7.50;95.00;;;;;;5054530;28;20443;-66
2022/02/14 09:07:12;;;;;;;9.27;4.60;;;7.70;96.90;;;;;;5054431;28;20455;-66
2022/02/14 09:09:39;;;;;;;8.67;4.23;;;7.70;97.70;;;;;;5054286;28;20833;-66
2022/02/14 09:12:06;;;;;;;9.70;4.23;;;7.80;96.10;;;;;;5054311;28;20448;-66
2022/02/14 09:14:33;;;;;;;9.00;4.10;;;7.90;95.30;;;;;;5054224;28;20999;-65
2022/02/14 09:16:59;;;;;;;8.23;4.10;;;8.50;95.70;;;;;;5053144;28;20447;-66
2022/02/14 09:19:27;;;;;;;10.80;4.40;;;9.50;94.30;;;;;;5053852;28;20491;-67
2022/02/14 09:21:54;;;;;;;9.27;4.37;;;10.30;91.30;;;;;;5054085;28;20513;-66
2022/02/14 09:24:21;;;;;;;7.73;4.37;;;10.90;91.90;;;;;;5054055;28;20946;-67
2022/02/14 09:26:48;;;;;;;8.93;4.80;;;11.60;89.50;;;;;;5053893;28;20454;-67
2022/02/14 09:29:16;;;;;;;10.27;4.27;;;12.20;85.90;;;;;;5053699;28;20443;-67
2022/02/14 09:31:43;;;;;;;8.77;4.10;;;13.10;85.00;;;;;;5053694;28;20447;-67
2022/02/14 09:34:10;;;;;;;8.40;4.43;;;;;;;;;;5053768;28;20950;-68
2022/02/14 09:36:39;;;;;;;10.03;4.30;;;13.90;82.60;;;;;;5053891;28;20459;-67
2022/02/14 09:39:08;;;;;;;15.40;4.63;;;14.50;80.00;;;;;;5052972;28;20483;-66
2022/02/14 09:41:36;;;;;;;10.00;4.07;;;14.30;81.50;;;;;;5053564;28;20790;-67
2022/02/14 09:44:04;;;;;;;9.00;4.20;;;13.60;82.60;;;;;;5053858;28;20876;-67
2022/02/14 09:46:31;;;;;;;7.67;4.20;;;13.20;84.40;;;;;;5053565;28;20447;-67
2022/02/14 09:49:01;;;;;;;12.90;4.60;;;12.80;85.20;;;;;;5053311;28;20860;-66
2022/02/14 09:51:29;;;;;;;20.20;4.63;;;12.30;87.30;;;;;;5053177;28;20834;-66
2022/02/14 09:53:58;;;;;;;9.67;4.07;;;12.50;86.40;;;;;;5051551;28;20463;-65
2022/02/14 09:56:27;;;;;;;17.67;4.70;;;13.00;85.00;;;;;;5051213;28;20813;-66
2022/02/14 09:58:54;;;;;;;24.83;5.00;;;12.90;86.20;;;;;;5051344;28;20479;-66
2022/02/14 10:01:22;;;;;;;7.67;4.73;;;13.10;87.10;;;;;;5051763;28;20498;-65
2022/02/14 10:03:54;;;;;;;37.80;5.77;;;13.80;83.60;;;;;;5051829;28;20863;-66
2022/02/14 10:06:26;;;;;;;13.20;4.47;;;14.30;84.10;;;;;;5051460;28;20451;-67
2022/02/14 10:09:07;;;;;;;10.00;3.87;;;14.60;84.10;;;;;;5053245;28;20642;-65
2022/02/14 10:11:36;;;;;;;17.63;4.33;;;14.60;82.00;;;;;;5053281;28;20448;-64
2022/02/14 10:14:14;;;;;;;12.53;4.13;;;14.20;82.50;;;;;;5053202;28;20447;-66
2022/02/14 10:17:04;;;;;;;8.20;3.87;;;13.60;84.30;;;;;;5052374;28;20443;-66
2022/02/14 10:19:34;;;;;;;15.30;4.43;;;13.10;83.80;;;;;;5052698;28;20487;-66
2022/02/14 10:22:01;;;;;;;20.60;5.50;;;12.70;86.00;;;;;;5052688;28;20461;-66
2022/02/14 10:24:29;;;;;;;9.33;4.10;;;12.50;88.40;;;;;;5052864;28;20881;-66
2022/02/14 10:26:56;;;;;;;12.23;4.07;;;12.60;87.50;;;;;;5052386;28;20451;-65
2022/02/14 10:29:25;;;;;;;11.97;3.70;;;12.60;88.50;;;;;;5052545;28;20456;-65
2022/02/14 10:31:54;;;;;;;10.03;4.13;;;12.40;89.00;;;;;;5052682;28;20876;-65
2022/02/14 10:34:22;;;;;;;15.13;5.37;;;12.20;89.30;;;;;;5051897;28;20451;-63
2022/02/14 10:36:51;;;;;;;9.63;3.87;;;12.10;88.80;;;;;;5048830;28;20448;-63
2022/02/14 10:39:21;;;;;;;8.33;4.00;;;11.80;91.40;;;;;;5047892;28;20576;-64
2022/02/14 10:41:51;;;;;;;18.63;4.73;;;11.80;91.20;;;;;;5072639;22;20507;-68
2022/02/14 10:47:06;;;;;;;8.20;3.63;;;11.80;93.50;;;;;;5070630;28;20518;-67
2022/02/14 10:49:34;;;;;;;6.90;3.43;;;11.80;94.80;;;;;;5070616;28;20443;-68
2022/02/14 10:52:05;;;;;;;5.20;3.30;;;11.80;94.30;;;;;;5071432;28;20467;-68
2022/02/14 10:54:42;;;;;;;7.03;3.30;;;11.70;96.00;;;;;;5071440;28;20447;-68
2022/02/14 10:57:26;;;;;;;8.50;3.40;;;11.70;95.80;;;;;;5071930;28;20454;-68
2022/02/14 10:59:57;;;;;;;11.03;3.40;;;11.80;95.70;;;;;;5071797;28;20517;-69
2022/02/14 11:02:23;;;;;;;7.70;3.73;;;11.70;96.30;;;;;;5071841;28;20467;-68
2022/02/14 11:04:50;;;;;;;8.00;3.33;;;11.80;96.50;;;;;;5071336;28;20447;-68
2022/02/14 11:07:17;;;;;;;6.73;3.17;;;11.70;96.90;;;;;;5071929;28;20443;-69
2022/02/14 11:09:47;;;;;;;6.63;3.53;;;11.90;95.90;;;;;;5071702;28;20484;-69
2022/02/14 11:12:17;;;;;;;9.50;3.83;;;11.90;96.00;;;;;;5072013;28;20467;-69
2022/02/14 11:14:50;;;;;;;5.77;3.30;;;12.00;96.00;;;;;;5071675;28;20953;-69
2022/02/14 11:17:19;;;;;;;6.90;3.70;;;12.10;97.10;;;;;;5071391;28;20831;-68
2022/02/14 11:19:48;;;;;;;58.53;6.70;;;12.20;96.70;;;;;;5071306;28;20532;-69
2022/02/14 11:22:16;;;;;;;31.37;5.10;;;12.20;97.20;;;;;;5071414;28;20462;-69
2022/02/14 11:24:48;;;;;;;11.67;3.37;;;12.30;97.60;;;;;;5071695;28;20446;-71
2022/02/14 11:27:21;;;;;;;7.60;2.83;;;12.00;99.00;;;;;;5071478;28;20443;-69
2022/02/14 11:29:52;;;;;;;20.43;4.00;;;11.70;99.70;;;;;;5071571;28;20438;-68
2022/02/14 11:32:24;;;;;;;11.30;3.07;;;11.80;99.70;;;;;;5071300;28;20630;-69
2022/02/14 11:34:59;;;;;;;13.03;3.40;;;11.70;99.70;;;;;;5071370;28;20447;-70
2022/02/14 11:37:50;;;;;;;8.57;2.97;;;11.80;99.70;;;;;;5070608;28;20871;-69
2022/02/14 11:40:32;;;;;;;6.30;2.83;;;11.90;99.70;;;;;;5071155;28;20486;-66
2022/02/14 11:43:07;;;;;;;5.37;2.40;;;11.90;99.70;;;;;;5070110;28;20482;-69
2022/02/14 11:45:35;;;;;;;124.70;13.13;;;12.10;99.70;;;;;;5070245;28;20465;-69
2022/02/14 11:48:21;;;;;;;21.73;4.03;;;12.10;99.70;;;;;;5071176;28;20443;-70
2022/02/14 11:50:48;;;;;;;11.00;3.37;;;11.90;99.70;;;;;;5071303;28;20434;-69
2022/02/14 11:53:34;;;;;;;61.67;8.40;;;11.90;99.70;;;;;;5071309;28;20972;-68
2022/02/14 11:56:24;;;;;;;24.80;4.87;;;11.70;99.70;;;;;;5071092;28;20446;-69
2022/02/14 11:59:02;;;;;;;5.93;2.83;;;11.70;99.70;;;;;;5071058;28;20475;-69
2022/02/14 12:01:30;;;;;;;25.27;4.53;;;11.80;99.70;;;;;;5070997;28;20467;-69
2022/02/14 12:04:30;;;;;;;7.30;2.73;;;11.90;99.70;;;;;;5069624;28;20525;-69
2022/02/14 12:07:20;;;;;;;5.90;2.60;;;11.80;99.70;;;;;;5070778;28;20452;-69
2022/02/14 12:10:19;;;;;;;8.43;2.67;;;11.80;99.70;;;;;;5071045;28;20789;-69
2022/02/14 12:13:10;;;;;;;4.83;2.60;;;11.80;99.70;;;;;;5070668;28;20788;-69
2022/02/14 12:21:39;;;;;;;4.23;2.43;;;11.50;99.70;;;;;;5069664;28;20608;-69
2022/02/14 12:24:20;;;;;;;5.23;2.33;;;11.60;99.70;;;;;;5070798;28;20785;-70
2022/02/14 12:26:53;;;;;;;6.30;2.87;;;11.60;99.70;;;;;;5070623;28;20466;-70
2022/02/14 12:29:36;;;;;;;6.03;4.07;;;11.40;99.70;;;;;;5071014;28;20447;-70
2022/02/14 12:32:06;;;;;;;852.10;52.73;;;11.50;99.70;;;;;;5070734;28;21040;-69
2022/02/14 12:34:37;;;;;;;30.03;4.30;;;11.50;99.70;;;;;;5070992;28;20438;-70
2022/02/14 12:37:05;;;;;;;;;;;11.40;99.70;;;;;;5070688;28;20439;-70
2022/02/14 12:39:34;;;;;;;60.67;8.13;;;11.40;99.70;;;;;;5068949;28;20529;-70
2022/02/14 12:42:26;;;;;;;6.13;4.18;;;11.10;99.70;;;;;;5070735;28;20232;-70
2022/02/14 12:44:55;;;;;;;27.53;4.93;;;11.20;99.70;;;;;;5065132;28;20527;-70
2022/02/14 12:47:23;;;;;;;100.03;10.30;;;11.30;99.70;;;;;;5070922;28;20442;-69
2022/02/14 12:50:07;;;;;;;30.87;5.80;;;11.20;99.70;;;;;;5070576;28;20439;-69
2022/02/14 12:52:34;;;;;;;10.30;3.90;;;11.10;99.70;;;;;;5070678;28;20466;-68
2022/02/14 12:55:02;;;;;;;93.27;11.37;;;11.20;99.70;;;;;;5070481;28;20445;-69
2022/02/14 12:57:34;;;;;;;32.10;5.67;;;11.20;99.70;;;;;;5070554;28;20485;-69
2022/02/14 13:00:01;;;;;;;8.17;2.77;;;11.30;99.70;;;;;;5070087;28;20535;-69
2022/02/14 13:02:28;;;;;;;8.90;2.90;;;11.40;99.70;;;;;;5070641;28;20459;-69
2022/02/14 13:04:54;;;;;;;5.87;2.43;;;11.40;99.70;;;;;;5070144;28;20449;-69
2022/02/14 13:07:26;;;;;;;22.40;3.80;;;11.60;99.70;;;;;;5070573;28;20874;-71
2022/02/14 13:10:02;;;;;;;8.17;2.40;;;11.60;99.70;;;;;;5070339;28;20820;-69